View Data : List Evapotranspiration (ETo ) Reports


 
Search Evapotranspiration Reports
Station Fields:
Location:
Date Range:
Start Date:   End Date:
Searched: Report date on 4/20/2024.
Showing 33 Records.    
DateTimeStation NumberStation NameGaugeReadingRefill LevelEvap AmtView
4/20/2024  5:00 AM  NY-CQ-22  Fredonia 0.8 WNW 1.90  0.05   View
4/20/2024  5:30 AM  AL-MD-90  Huntsville 3.7 ENE 6.82  0.02   View
4/20/2024  6:00 AM  CA-SJ-5  Lodi 1.0 NNW 4.45  0.10   View
4/20/2024  6:00 AM  PA-YR-37  East Berlin 3.4 ESE 1.19  0.04   View
4/20/2024  6:00 AM  VA-BD-9  Bedford 3.2 W 0.42  0.02   View
4/20/2024  6:30 AM  WA-SJ-28  Lopez Island 3.9 NNE 1.14  0.13   View
4/20/2024  6:45 AM  TX-BXR-168  Hollywood Park 4.3 ENE 2.30  0.08   View
4/20/2024  6:55 AM  OR-CC-76  Estacada 5.2 WNW 1.45  0.05   View
4/20/2024  7:00 AM  AZ-MR-326  Phoenix 6.3 SSW 5.02  0.10   View
4/20/2024  7:00 AM  AZ-PN-50  Saddlebrooke 1.5 SW 6.42  0.30   View
4/20/2024  7:00 AM  CA-HM-5  Mckinleyville 7.3 ESE 0.76  0.10   View
4/20/2024  7:00 AM  CA-SD-12  Poway 3.2NE 6.80  0.09   View
4/20/2024  7:00 AM  CO-LR-854  Loveland 2.3 NW 1.00  0.00   View
4/20/2024  7:00 AM  GA-CO-3  Adel 1.9 SSE 4.24  0.15   View
4/20/2024  7:00 AM  IL-DK-28  De Kalb 0.7 SW 1.01  0.11   View
4/20/2024  7:00 AM  IN-HR-5  Milltown 5.7 SSE 2.20  0.05   View
4/20/2024  7:00 AM  IN-OW-9  Spencer 7.0 S 1.70  0.08   View
4/20/2024  7:00 AM  IA-CL-4  Murray 1.7 W 2.13  0.08   View
4/20/2024  7:00 AM  KS-RL-1  Manhattan 0.5 NE 2.65  0.15   View
4/20/2024  7:00 AM  MD-HR-23  Norrisville 0.6 WSW 0.69  0.02   View
4/20/2024  7:00 AM  NC-PR-15  Hertford 6.0 SSE 0.70  0.10   View
4/20/2024  7:00 AM  OH-DR-1  Bradford 2.3 NW 1.38  0.07   View
4/20/2024  7:00 AM  OH-PB-1  Eaton 1.0 N 1.45  0.09   View
4/20/2024  7:00 AM  OK-PY-9  Glencoe 3.0 W 4.94  0.14   View
4/20/2024  7:00 AM  SC-CR-49  NWS Charleston SC 3.68  0.17   View
4/20/2024  7:00 AM  TN-PT-3  Byrdstown 2.8 SSW 5.35  0.02   View
4/20/2024  7:00 AM  TN-WN-10  Green Hill 0.3 N 5.12  0.04   View
4/20/2024  7:00 AM  TX-TV-9  West Lake Hills 2.4 NNW 3.02  0.11   View
4/20/2024  7:30 AM  MN-DK-53  Lakeville 3.8 ENE 1.45  0.06   View
4/20/2024  8:00 AM  IN-MR-13  Speedway 6.2 SSW 0.28  0.09   View
4/20/2024  8:00 AM  SC-AK-106  Graniteville 3.9 ENE 5.23  0.14   View
4/20/2024  8:00 AM  WV-CB-17  Huntington 1.7 ESE 0.92  0.02   View
4/20/2024  11:00 AM  AL-BW-106  Fairhope 3.3 ENE 4.90  0.10   View
Showing 33 Records.